Time;durP1;ratioP1;P1;durP2;ratioP2;P2;SDS_P1;SDS_P2;PMS_P1;PMS_P2;Temp;Humidity;BMP_temperature;BMP_pressure;BME280_temperature;BME280_humidity;BME280_pressure;Samples;Min_cycle;Max_cycle;Signal;HPM_P1;HPM_P2
2022/10/31 02:58:03;;;;;;;26.73;24.33;;;11.90;99.90;;;;;;5923035;23;20665;-72
2022/10/31 03:00:32;;;;;;;24.80;23.10;;;11.60;99.90;;;;;;4952463;29;20451;-72
2022/10/31 03:03:10;;;;;;;25.13;22.83;;;11.50;99.90;;;;;;4954290;29;20482;-70
2022/10/31 03:05:49;;;;;;;26.33;24.33;;;11.50;99.90;;;;;;4955047;29;20460;-71
2022/10/31 03:08:23;;;;;;;26.10;23.80;;;11.50;99.90;;;;;;4954598;29;20454;-72
2022/10/31 03:10:55;;;;;;;25.77;23.80;;;11.50;99.90;;;;;;4954567;29;20780;-71
2022/10/31 03:13:31;;;;;;;26.77;24.70;;;11.50;99.90;;;;;;4954671;29;20464;-72
2022/10/31 03:16:08;;;;;;;27.90;25.80;;;11.40;99.90;;;;;;4954307;29;20462;-71
2022/10/31 03:18:40;;;;;;;27.50;25.17;;;11.40;99.90;;;;;;4954701;29;20448;-71
2022/10/31 03:21:10;;;;;;;26.13;24.07;;;11.40;99.90;;;;;;4957707;29;20484;-71
2022/10/31 03:23:40;;;;;;;25.87;24.13;;;11.30;99.90;;;;;;4955240;29;20459;-72
2022/10/31 03:26:09;;;;;;;27.07;24.97;;;11.30;99.90;;;;;;4954663;29;20817;-72
2022/10/31 03:28:42;;;;;;;27.27;24.53;;;11.30;99.90;;;;;;4954508;29;20982;-72
2022/10/31 03:31:10;;;;;;;27.20;24.70;;;11.20;99.90;;;;;;4954181;29;20460;-72
2022/10/31 03:33:39;;;;;;;26.53;24.57;;;11.20;99.90;;;;;;4954206;28;20463;-72
2022/10/31 03:36:12;;;;;;;28.83;24.20;;;11.20;99.90;;;;;;4954201;29;20464;-72
2022/10/31 03:38:40;;;;;;;26.47;24.40;;;11.20;99.90;;;;;;4954040;28;20491;-72
2022/10/31 03:41:13;;;;;;;25.40;23.40;;;11.10;99.90;;;;;;4953850;29;20485;-70
2022/10/31 03:43:48;;;;;;;26.33;23.93;;;11.10;99.90;;;;;;4953791;29;20456;-71
2022/10/31 03:46:15;;;;;;;26.57;24.50;;;11.10;99.90;;;;;;4953796;29;20581;-71
2022/10/31 03:48:42;;;;;;;27.97;25.67;;;11.10;99.90;;;;;;4953687;29;20440;-71
2022/10/31 03:51:16;;;;;;;25.13;23.40;;;11.10;99.90;;;;;;4953759;29;20457;-71
2022/10/31 03:53:51;;;;;;;26.50;24.20;;;11.10;99.90;;;;;;4953400;29;20965;-71
2022/10/31 03:56:23;;;;;;;27.93;25.33;;;11.10;99.90;;;;;;4953624;29;20460;-71
2022/10/31 03:58:59;;;;;;;27.03;25.03;;;11.00;99.90;;;;;;4934410;29;20929;-72
2022/10/31 04:01:29;;;;;;;28.00;25.53;;;11.10;99.90;;;;;;4934255;29;20563;-71
2022/10/31 04:03:58;;;;;;;28.00;25.90;;;11.00;99.90;;;;;;4934122;29;20461;-71
2022/10/31 04:06:26;;;;;;;27.67;25.37;;;11.00;99.90;;;;;;4934497;29;20681;-71
2022/10/31 04:08:58;;;;;;;29.17;26.53;;;11.00;99.90;;;;;;4934595;29;20457;-71
2022/10/31 04:11:29;;;;;;;27.93;25.70;;;11.00;99.90;;;;;;4934321;29;20450;-71
2022/10/31 04:14:00;;;;;;;26.83;24.60;;;11.00;99.90;;;;;;4934004;29;20473;-71
2022/10/31 04:16:27;;;;;;;26.90;24.80;;;11.00;99.90;;;;;;4933901;29;20461;-70
2022/10/31 04:18:54;;;;;;;27.67;25.07;;;11.00;99.90;;;;;;4934000;29;20476;-71
2022/10/31 04:21:28;;;;;;;25.80;24.00;;;11.00;99.90;;;;;;4934049;29;20485;-71
2022/10/31 04:23:55;;;;;;;24.70;23.23;;;11.00;99.90;;;;;;4933930;29;20461;-70
2022/10/31 04:26:22;;;;;;;27.07;24.73;;;11.00;99.90;;;;;;4934111;29;20785;-71
2022/10/31 04:28:48;;;;;;;27.00;25.00;;;10.90;99.90;;;;;;4933657;29;20458;-71
2022/10/31 04:31:17;;;;;;;29.00;26.63;;;10.90;99.90;;;;;;4933570;29;20450;-71
2022/10/31 04:33:43;;;;;;;28.87;26.50;;;10.90;99.90;;;;;;4933523;29;20490;-71
2022/10/31 04:36:10;;;;;;;29.93;26.97;;;10.90;99.90;;;;;;4933484;29;20927;-72
2022/10/31 04:38:37;;;;;;;28.50;25.80;;;10.90;99.90;;;;;;4933807;29;20464;-72
2022/10/31 04:41:04;;;;;;;29.00;26.47;;;10.80;99.90;;;;;;4933552;29;20461;-72
2022/10/31 04:43:31;;;;;;;27.77;25.37;;;10.90;99.90;;;;;;4933268;29;20454;-72
2022/10/31 04:45:57;;;;;;;27.30;25.37;;;10.80;99.90;;;;;;4932803;29;20454;-71
2022/10/31 04:48:25;;;;;;;25.53;23.93;;;10.80;99.90;;;;;;4933461;29;20587;-71
2022/10/31 04:50:52;;;;;;;25.23;23.60;;;10.80;99.90;;;;;;4933614;29;20456;-71
2022/10/31 04:53:19;;;;;;;27.87;25.90;;;10.80;99.90;;;;;;4933369;29;20931;-71
2022/10/31 04:55:46;;;;;;;26.20;24.30;;;10.80;99.90;;;;;;4933372;29;20464;-71
2022/10/31 04:58:12;;;;;;;26.23;24.07;;;10.80;99.90;;;;;;4932840;29;20525;-70
2022/10/31 05:00:39;;;;;;;25.30;23.47;;;10.80;99.90;;;;;;4933063;29;20928;-69
2022/10/31 05:03:06;;;;;;;27.73;25.43;;;10.70;99.90;;;;;;4933293;29;20493;-70
2022/10/31 05:05:34;;;;;;;26.80;24.90;;;10.70;99.90;;;;;;4932981;29;20457;-70
2022/10/31 05:08:01;;;;;;;27.50;25.10;;;10.70;99.90;;;;;;4932964;29;20453;-71
2022/10/31 05:10:30;;;;;;;27.43;25.47;;;10.70;99.90;;;;;;4932870;29;20589;-70
2022/10/31 05:12:58;;;;;;;26.30;24.53;;;10.60;99.90;;;;;;4932650;29;20987;-70
2022/10/31 05:15:27;;;;;;;25.43;23.70;;;10.60;99.90;;;;;;4932784;29;20473;-71
2022/10/31 05:17:54;;;;;;;26.03;24.00;;;10.60;99.90;;;;;;4932995;29;20456;-71
2022/10/31 05:20:23;;;;;;;25.33;23.50;;;10.60;99.90;;;;;;4933051;29;20450;-72
2022/10/31 05:22:52;;;;;;;25.37;23.70;;;10.60;99.90;;;;;;4932930;29;20485;-72
2022/10/31 05:25:21;;;;;;;25.20;23.50;;;10.50;99.90;;;;;;4932816;29;20449;-73
2022/10/31 05:27:49;;;;;;;25.57;23.70;;;10.50;99.90;;;;;;4932640;29;20457;-73
2022/10/31 05:30:18;;;;;;;24.87;22.77;;;10.50;99.90;;;;;;4932527;29;20974;-72
2022/10/31 05:32:46;;;;;;;24.83;23.00;;;10.50;99.90;;;;;;4932887;29;20673;-71
2022/10/31 05:35:15;;;;;;;24.93;23.30;;;10.50;99.90;;;;;;4932692;29;20468;-72
2022/10/31 05:37:42;;;;;;;24.73;22.73;;;10.60;99.90;;;;;;4932704;29;20449;-73
2022/10/31 05:40:13;;;;;;;25.50;23.70;;;10.60;99.90;;;;;;4932907;29;20464;-72
2022/10/31 05:42:41;;;;;;;26.20;23.97;;;10.50;99.90;;;;;;4932514;29;21003;-73
2022/10/31 05:45:09;;;;;;;26.73;24.73;;;10.50;99.90;;;;;;4932830;29;20458;-72
2022/10/31 05:47:36;;;;;;;25.53;23.83;;;10.50;99.90;;;;;;4932865;29;20977;-72
2022/10/31 05:50:03;;;;;;;25.47;23.57;;;10.50;99.90;;;;;;4932623;29;20453;-71
2022/10/31 05:52:30;;;;;;;24.83;22.73;;;10.50;99.90;;;;;;4932576;29;20452;-71
2022/10/31 05:54:57;;;;;;;25.80;24.30;;;10.50;99.90;;;;;;4932303;29;20453;-71
2022/10/31 05:57:25;;;;;;;26.33;24.10;;;10.50;99.90;;;;;;4931468;29;20477;-71
2022/10/31 05:59:53;;;;;;;25.10;23.40;;;10.50;99.90;;;;;;4932475;29;20615;-71
2022/10/31 06:02:20;;;;;;;25.43;23.20;;;10.30;99.90;;;;;;4932113;29;20532;-71
2022/10/31 06:04:46;;;;;;;25.33;23.17;;;10.40;99.90;;;;;;4932072;29;20466;-72
2022/10/31 06:07:13;;;;;;;25.53;23.63;;;10.40;99.90;;;;;;4932081;29;21056;-71
2022/10/31 06:09:40;;;;;;;24.70;22.70;;;10.40;99.90;;;;;;4932263;29;20967;-71
2022/10/31 06:12:07;;;;;;;25.10;23.23;;;10.40;99.90;;;;;;4932198;29;20453;-71
2022/10/31 06:14:35;;;;;;;26.80;24.73;;;10.40;99.90;;;;;;4932108;29;20821;-72
2022/10/31 06:17:02;;;;;;;28.10;25.50;;;10.40;99.90;;;;;;4932035;29;20453;-72
2022/10/31 06:19:28;;;;;;;25.93;24.30;;;10.40;99.90;;;;;;4932171;29;20453;-71
2022/10/31 06:21:55;;;;;;;26.57;24.23;;;10.40;99.90;;;;;;4933130;29;20862;-71
2022/10/31 06:24:22;;;;;;;25.80;24.10;;;10.40;99.90;;;;;;4936228;29;20465;-72
2022/10/31 06:26:48;;;;;;;23.27;21.60;;;10.40;99.90;;;;;;4932514;29;21171;-71
2022/10/31 06:29:15;;;;;;;26.10;23.90;;;10.40;99.90;;;;;;4932456;29;20457;-71
2022/10/31 06:31:43;;;;;;;25.73;23.77;;;10.50;99.90;;;;;;4932211;29;20822;-71
2022/10/31 06:34:10;;;;;;;25.00;23.23;;;10.50;99.90;;;;;;4932268;29;20453;-71
2022/10/31 06:36:37;;;;;;;25.10;22.87;;;10.50;99.90;;;;;;4932244;29;20538;-71
2022/10/31 06:39:03;;;;;;;23.90;22.07;;;10.60;99.90;;;;;;4932134;29;20466;-71
2022/10/31 06:41:30;;;;;;;24.57;22.40;;;10.60;99.90;;;;;;4931985;29;20492;-71
2022/10/31 06:43:57;;;;;;;25.30;23.17;;;10.60;99.90;;;;;;4931929;29;20492;-70
2022/10/31 06:46:24;;;;;;;23.87;22.30;;;10.70;99.90;;;;;;4932157;29;20939;-71
2022/10/31 06:48:52;;;;;;;24.63;22.83;;;10.80;99.90;;;;;;4932319;29;20461;-73
2022/10/31 06:51:18;;;;;;;22.70;20.97;;;11.00;99.90;;;;;;4931950;29;20592;-72
2022/10/31 06:53:45;;;;;;;23.53;21.50;;;11.20;99.90;;;;;;4931869;29;20449;-72
2022/10/31 06:56:12;;;;;;;23.20;21.57;;;11.30;99.90;;;;;;4932109;29;20457;-71
2022/10/31 06:58:38;;;;;;;21.07;19.47;;;11.50;99.90;;;;;;4931675;29;21007;-72
2022/10/31 07:01:05;;;;;;;22.40;20.40;;;11.50;99.90;;;;;;4932313;29;20453;-72
2022/10/31 07:03:32;;;;;;;21.77;19.87;;;11.40;99.90;;;;;;4931892;29;20500;-71
2022/10/31 07:06:00;;;;;;;22.57;20.73;;;11.30;99.90;;;;;;4930044;29;20470;-71
2022/10/31 07:08:27;;;;;;;20.70;19.30;;;11.30;99.90;;;;;;4931912;29;20468;-71
2022/10/31 07:10:55;;;;;;;23.83;22.07;;;11.30;99.90;;;;;;4934655;29;20476;-72
2022/10/31 07:13:25;;;;;;;22.23;20.40;;;11.30;99.90;;;;;;4935166;29;20453;-71
2022/10/31 07:15:53;;;;;;;20.93;19.70;;;11.40;99.90;;;;;;4935213;29;20829;-72
2022/10/31 07:18:21;;;;;;;20.20;18.90;;;11.50;99.90;;;;;;4934930;29;20454;-72
2022/10/31 07:20:47;;;;;;;20.27;18.87;;;11.60;99.90;;;;;;4934839;29;20487;-72
2022/10/31 07:23:15;;;;;;;20.07;18.33;;;11.80;99.90;;;;;;4934567;29;20489;-74
2022/10/31 07:25:42;;;;;;;20.83;19.27;;;11.80;99.90;;;;;;4934412;29;20459;-72
2022/10/31 07:28:10;;;;;;;20.00;18.13;;;11.80;99.90;;;;;;4934694;29;20809;-72
2022/10/31 07:30:37;;;;;;;20.70;19.07;;;11.80;99.90;;;;;;4935016;29;20792;-72
2022/10/31 07:33:05;;;;;;;22.37;20.73;;;11.80;99.90;;;;;;4934856;29;20457;-71
2022/10/31 07:35:32;;;;;;;22.97;20.93;;;11.70;99.90;;;;;;4934711;29;20461;-72
2022/10/31 07:38:07;;;;;;;22.13;20.33;;;11.70;99.90;;;;;;4934417;29;20475;-72
2022/10/31 07:40:35;;;;;;;19.57;18.37;;;11.60;99.90;;;;;;4934461;29;20476;-72
2022/10/31 07:43:01;;;;;;;20.30;19.00;;;11.70;99.90;;;;;;4934395;29;20495;-72
2022/10/31 07:45:28;;;;;;;21.53;19.87;;;11.80;99.90;;;;;;4934471;29;20460;-72
2022/10/31 07:47:55;;;;;;;20.37;19.10;;;11.90;99.90;;;;;;4934362;29;20472;-71
2022/10/31 07:50:24;;;;;;;20.47;18.97;;;12.10;99.90;;;;;;4934411;29;20468;-72
2022/10/31 07:52:59;;;;;;;20.40;18.90;;;12.30;99.90;;;;;;4934701;29;20940;-71
2022/10/31 07:55:26;;;;;;;23.63;21.70;;;12.40;99.90;;;;;;4934521;29;20463;-71
2022/10/31 07:57:58;;;;;;;24.03;20.50;;;12.60;99.90;;;;;;4934249;29;20485;-71
2022/10/31 08:00:25;;;;;;;22.27;20.40;;;12.60;99.90;;;;;;4934231;29;20461;-70
2022/10/31 08:02:58;;;;;;;23.90;22.17;;;12.50;99.90;;;;;;4934411;29;20489;-71
2022/10/31 08:05:25;;;;;;;26.53;22.00;;;12.50;99.90;;;;;;4934475;29;20461;-71
2022/10/31 08:07:51;;;;;;;20.73;19.20;;;12.60;99.90;;;;;;4934791;29;20449;-71
2022/10/31 08:10:18;;;;;;;19.20;18.00;;;12.60;99.90;;;;;;4934702;29;20487;-70
2022/10/31 08:12:45;;;;;;;20.97;18.97;;;12.70;99.90;;;;;;4934423;29;20449;-70
2022/10/31 08:15:13;;;;;;;21.07;19.57;;;12.80;99.90;;;;;;4934532;29;20449;-72
2022/10/31 08:17:41;;;;;;;19.30;18.00;;;12.90;99.90;;;;;;4934294;29;20465;-69
2022/10/31 08:20:08;;;;;;;25.63;18.00;;;13.20;99.90;;;;;;4933275;29;20549;-71
2022/10/31 08:22:35;;;;;;;18.07;16.73;;;13.30;99.90;;;;;;4934184;29;20490;-71
2022/10/31 08:25:02;;;;;;;18.70;17.60;;;13.30;99.90;;;;;;4934360;29;20461;-73
2022/10/31 08:27:29;;;;;;;18.50;17.30;;;13.30;99.90;;;;;;4934079;29;21138;-70
2022/10/31 08:29:55;;;;;;;18.70;17.60;;;13.40;99.90;;;;;;4933963;29;20450;-70
2022/10/31 08:32:24;;;;;;;19.70;18.30;;;13.40;99.90;;;;;;4934102;29;20445;-70
2022/10/31 08:34:51;;;;;;;18.43;17.13;;;13.60;99.90;;;;;;4934291;29;20454;-74
2022/10/31 08:37:19;;;;;;;18.53;16.87;;;13.80;99.90;;;;;;4934175;29;20540;-73
2022/10/31 08:39:46;;;;;;;20.93;19.03;;;13.80;99.90;;;;;;4933730;29;20453;-73
2022/10/31 08:42:13;;;;;;;18.83;17.47;;;13.90;99.90;;;;;;4933499;29;20449;-72
2022/10/31 08:44:40;;;;;;;18.37;17.20;;;14.00;99.90;;;;;;4933624;29;20488;-73
2022/10/31 08:47:06;;;;;;;17.87;16.37;;;14.10;99.90;;;;;;4933948;29;20461;-73
2022/10/31 08:49:34;;;;;;;18.20;16.70;;;14.20;99.90;;;;;;4933703;29;20452;-73
2022/10/31 08:52:01;;;;;;;17.47;16.20;;;14.40;99.90;;;;;;4933483;29;20457;-73
2022/10/31 08:54:28;;;;;;;19.37;17.63;;;14.50;99.90;;;;;;4933266;29;20968;-72
2022/10/31 08:56:56;;;;;;;17.90;16.53;;;14.60;99.90;;;;;;4933303;29;20485;-73
2022/10/31 08:59:23;;;;;;;19.17;17.70;;;14.70;99.90;;;;;;4933070;29;20991;-73
2022/10/31 09:01:49;;;;;;;26.80;18.10;;;14.70;99.90;;;;;;4933468;29;20465;-73
2022/10/31 09:04:16;;;;;;;20.00;18.20;;;14.90;99.90;;;;;;4933119;29;20485;-72
2022/10/31 09:06:44;;;;;;;19.00;17.60;;;15.00;99.90;;;;;;4933060;29;20449;-72
2022/10/31 09:09:11;;;;;;;18.83;17.30;;;15.20;99.90;;;;;;4931046;29;20461;-73
2022/10/31 09:11:38;;;;;;;21.07;19.20;;;15.20;99.90;;;;;;4931335;29;20454;-73
2022/10/31 09:14:04;;;;;;;21.37;19.70;;;15.20;99.90;;;;;;4933231;29;20438;-72
2022/10/31 09:16:31;;;;;;;20.37;18.57;;;15.20;99.90;;;;;;4933199;29;20457;-72
2022/10/31 09:18:58;;;;;;;17.53;16.33;;;15.20;99.90;;;;;;4932769;29;20457;-72
2022/10/31 09:21:25;;;;;;;18.13;16.87;;;15.30;99.90;;;;;;4932585;29;20461;-72
2022/10/31 09:23:53;;;;;;;17.73;16.00;;;15.20;99.90;;;;;;4934321;29;20496;-72
2022/10/31 09:26:20;;;;;;;20.17;18.30;;;15.10;99.90;;;;;;4934163;29;20457;-72
2022/10/31 09:28:47;;;;;;;19.00;17.50;;;15.20;99.90;;;;;;4933141;29;20453;-72
2022/10/31 09:31:14;;;;;;;18.80;16.90;;;15.30;99.90;;;;;;4932599;29;20450;-72
2022/10/31 09:33:41;;;;;;;16.60;15.50;;;15.50;99.90;;;;;;4932729;29;20461;-72
2022/10/31 09:36:08;;;;;;;18.00;16.60;;;15.70;99.90;;;;;;4932846;29;20462;-72
2022/10/31 09:38:35;;;;;;;16.80;15.70;;;15.80;99.90;;;;;;4932611;29;20453;-72
2022/10/31 09:41:14;;;;;;;16.97;15.90;;;15.70;99.90;;;;;;4932224;29;20935;-73
2022/10/31 09:43:51;;;;;;;16.63;15.60;;;15.50;99.90;;;;;;4932143;29;20493;-73
2022/10/31 09:46:26;;;;;;;16.20;15.00;;;15.50;99.90;;;;;;4932482;29;20453;-72
2022/10/31 09:49:19;;;;;;;19.80;15.87;;;15.40;99.90;;;;;;4932540;29;20449;-73
2022/10/31 09:51:52;;;;;;;17.50;16.40;;;15.50;99.90;;;;;;4931925;29;20458;-73
2022/10/31 09:54:23;;;;;;;18.27;16.80;;;15.60;99.90;;;;;;4932284;29;20453;-73
2022/10/31 09:56:51;;;;;;;17.57;16.20;;;15.80;99.90;;;;;;4932359;29;20504;-73
2022/10/31 09:59:25;;;;;;;18.30;17.00;;;15.90;99.90;;;;;;4931933;29;20484;-73
2022/10/31 10:01:56;;;;;;;18.43;16.83;;;16.10;99.90;;;;;;4932471;29;20808;-73
2022/10/31 10:04:33;;;;;;;16.90;16.00;;;16.20;99.90;;;;;;4932507;29;20489;-73
2022/10/31 10:07:05;;;;;;;16.33;15.33;;;16.30;99.90;;;;;;4931900;29;21003;-73
2022/10/31 10:09:32;;;;;;;16.77;15.50;;;16.20;99.90;;;;;;4932155;29;20453;-73
2022/10/31 10:12:14;;;;;;;17.30;16.07;;;16.30;99.90;;;;;;4931925;29;20703;-72
2022/10/31 10:14:55;;;;;;;18.67;17.07;;;16.50;99.90;;;;;;4932262;29;20548;-73
2022/10/31 10:17:35;;;;;;;17.03;15.77;;;16.70;99.90;;;;;;4932558;29;20449;-73
2022/10/31 10:20:19;;;;;;;16.20;15.20;;;16.90;99.90;;;;;;4932349;29;20819;-72
2022/10/31 10:22:53;;;;;;;17.00;15.80;;;17.10;99.90;;;;;;4931754;29;20980;-73
2022/10/31 10:25:24;;;;;;;17.00;15.63;;;17.10;99.90;;;;;;4932253;29;20454;-72
2022/10/31 10:28:03;;;;;;;16.27;15.17;;;17.30;99.90;;;;;;4931909;29;21119;-72
2022/10/31 10:30:36;;;;;;;14.70;14.00;;;17.50;99.90;;;;;;4931657;29;20966;-72
2022/10/31 10:33:10;;;;;;;16.10;15.00;;;17.80;99.90;;;;;;4931734;29;20457;-72
2022/10/31 10:35:43;;;;;;;16.43;15.33;;;17.80;99.90;;;;;;4932001;29;20457;-72
2022/10/31 10:38:17;;;;;;;15.90;14.90;;;17.90;99.90;;;;;;4931667;29;20449;-72
2022/10/31 10:40:44;;;;;;;17.10;16.00;;;17.60;99.90;;;;;;4931580;29;21099;-72
2022/10/31 10:43:25;;;;;;;17.60;16.47;;;17.60;99.90;;;;;;4933206;29;20453;-71
2022/10/31 10:49:05;;;;;;;18.57;16.67;;;17.90;99.90;;;;;;4935456;29;20432;-71
2022/10/31 10:51:41;;;;;;;17.77;16.27;;;17.90;99.90;;;;;;4935346;29;20951;-72
2022/10/31 10:54:20;;;;;;;16.77;15.63;;;17.70;99.90;;;;;;4935274;29;20790;-72
2022/10/31 10:56:57;;;;;;;17.10;14.53;;;17.70;99.90;;;;;;4934499;29;20473;-72
2022/10/31 10:59:26;;;;;;;16.03;15.03;;;17.70;99.90;;;;;;4934894;29;20481;-72
2022/10/31 11:01:53;;;;;;;18.90;17.50;;;17.50;99.90;;;;;;4935334;29;20478;-73
2022/10/31 11:04:31;;;;;;;18.27;16.77;;;17.50;99.90;;;;;;4935139;29;20489;-72
2022/10/31 11:07:04;;;;;;;17.17;15.50;;;17.60;99.90;;;;;;4934543;29;20449;-73
2022/10/31 11:09:31;;;;;;;17.73;16.33;;;17.70;99.90;;;;;;4934920;29;20449;-72
2022/10/31 11:11:59;;;;;;;16.13;14.90;;;17.70;99.90;;;;;;4934892;29;20453;-72
2022/10/31 11:14:27;;;;;;;16.97;15.60;;;17.80;99.90;;;;;;4934881;29;20466;-71
2022/10/31 11:17:07;;;;;;;18.93;17.73;;;17.80;99.90;;;;;;4935379;29;20453;-72
2022/10/31 11:19:34;;;;;;;17.57;16.47;;;17.70;99.90;;;;;;4935792;29;20449;-73
2022/10/31 11:22:08;;;;;;;18.47;17.10;;;17.60;99.90;;;;;;4935424;29;20454;-73
2022/10/31 11:24:39;;;;;;;16.57;15.57;;;17.90;99.90;;;;;;4934848;29;20533;-74
2022/10/31 11:27:14;;;;;;;17.33;16.10;;;18.40;99.90;;;;;;4935715;29;20465;-73
2022/10/31 11:29:42;;;;;;;18.40;17.20;;;18.70;99.90;;;;;;4935140;29;20457;-72
2022/10/31 11:32:19;;;;;;;18.07;16.63;;;18.90;99.90;;;;;;4935336;29;20477;-73
2022/10/31 11:34:49;;;;;;;16.70;15.60;;;19.20;99.90;;;;;;4935302;29;20458;-73
2022/10/31 11:37:19;;;;;;;17.80;16.30;;;19.60;99.90;;;;;;4933177;29;20464;-73
2022/10/31 11:39:53;;;;;;;18.13;16.83;;;19.70;99.90;;;;;;4933246;29;20454;-73
2022/10/31 11:42:21;;;;;;;16.97;15.50;;;19.40;99.90;;;;;;4935011;29;20897;-73
2022/10/31 11:44:51;;;;;;;17.27;15.87;;;19.40;99.90;;;;;;4934782;29;20495;-73
2022/10/31 11:47:21;;;;;;;17.17;15.80;;;19.40;99.90;;;;;;4934854;29;20441;-72
2022/10/31 11:49:49;;;;;;;17.10;16.00;;;19.60;99.90;;;;;;4935091;29;21061;-73
2022/10/31 11:52:20;;;;;;;18.27;16.60;;;19.80;99.90;;;;;;4932706;29;20446;-73
2022/10/31 11:54:50;;;;;;;18.47;17.00;;;19.70;99.90;;;;;;4933559;29;20445;-72
2022/10/31 11:57:26;;;;;;;19.27;17.67;;;20.00;99.90;;;;;;4934764;29;20469;-72
2022/10/31 11:59:55;;;;;;;20.33;18.63;;;20.20;99.90;;;;;;4934880;29;20484;-72
2022/10/31 12:02:23;;;;;;;18.63;17.40;;;20.20;99.90;;;;;;4934701;29;20458;-73
2022/10/31 12:04:56;;;;;;;20.23;18.10;;;20.30;99.90;;;;;;4934532;29;20580;-73
2022/10/31 12:07:23;;;;;;;17.97;16.30;;;20.30;99.90;;;;;;4934792;29;20476;-73
2022/10/31 12:09:50;;;;;;;18.03;16.50;;;20.00;99.90;;;;;;4934786;29;20794;-73
2022/10/31 12:12:42;;;;;;;18.23;16.83;;;19.90;99.90;;;;;;4934273;29;20454;-73
2022/10/31 12:15:31;;;;;;;17.73;16.40;;;20.10;99.90;;;;;;4934574;29;20812;-73
2022/10/31 12:18:34;;;;;;;17.00;15.70;;;19.90;99.90;;;;;;4934378;29;20453;-74
2022/10/31 12:21:13;;;;;;;15.73;14.50;;;19.90;99.90;;;;;;4934162;29;20460;-72
2022/10/31 12:23:51;;;;;;;17.30;16.00;;;20.20;99.90;;;;;;4934370;29;20452;-72
2022/10/31 12:26:23;;;;;;;16.97;15.67;;;20.70;99.90;;;;;;4934028;29;20468;-73
2022/10/31 12:29:04;;;;;;;16.57;15.37;;;21.20;99.90;;;;;;4934825;29;20991;-72
2022/10/31 12:31:58;;;;;;;15.63;14.63;;;21.50;99.90;;;;;;4934380;29;20445;-72
2022/10/31 12:34:57;;;;;;;17.83;16.30;;;21.50;99.90;;;;;;4934324;29;20455;-72
2022/10/31 12:37:39;;;;;;;15.97;14.87;;;21.30;99.90;;;;;;4934179;29;20458;-72
2022/10/31 12:40:25;;;;;;;17.03;15.80;;;21.20;99.90;;;;;;4934246;29;20445;-73
2022/10/31 12:43:04;;;;;;;17.80;16.20;;;21.10;99.90;;;;;;4933905;29;20453;-72
2022/10/31 12:45:45;;;;;;;17.33;16.20;;;20.70;99.90;;;;;;4933870;29;20485;-73
2022/10/31 12:48:29;;;;;;;18.07;16.67;;;20.60;99.90;;;;;;4933619;29;20456;-72
2022/10/31 12:51:03;;;;;;;18.00;16.90;;;20.20;99.90;;;;;;4933652;29;20453;-74
2022/10/31 12:53:43;;;;;;;16.50;15.50;;;20.00;99.90;;;;;;4933706;29;20874;-72
2022/10/31 12:56:29;;;;;;;18.47;17.13;;;19.80;99.90;;;;;;4933401;29;20454;-73
2022/10/31 12:59:01;;;;;;;17.20;16.03;;;19.80;99.90;;;;;;4933568;29;20489;-73
2022/10/31 13:01:33;;;;;;;18.17;16.53;;;20.00;99.90;;;;;;4933500;29;20456;-72
2022/10/31 13:04:06;;;;;;;17.73;16.43;;;19.70;99.90;;;;;;4933564;29;21217;-72
2022/10/31 13:06:37;;;;;;;17.17;16.10;;;19.50;99.90;;;;;;4933142;29;20450;-73
2022/10/31 13:09:09;;;;;;;18.30;17.00;;;19.50;99.90;;;;;;4933037;29;20500;-73
2022/10/31 13:11:40;;;;;;;16.40;15.47;;;19.50;99.90;;;;;;4933423;29;20540;-73
2022/10/31 13:14:12;;;;;;;14.93;14.03;;;19.60;99.90;;;;;;4933416;29;20954;-72
2022/10/31 13:16:42;;;;;;;17.10;15.77;;;19.70;99.90;;;;;;4931666;29;20544;-73
2022/10/31 13:19:17;;;;;;;16.70;15.50;;;19.70;99.90;;;;;;4933315;29;20449;-72
2022/10/31 13:21:56;;;;;;;17.17;15.57;;;19.70;99.90;;;;;;4933359;29;20488;-73
2022/10/31 13:24:31;;;;;;;17.90;16.30;;;19.80;99.90;;;;;;4933210;29;20516;-73
2022/10/31 13:27:00;;;;;;;16.00;14.80;;;19.90;99.90;;;;;;4932950;29;20452;-73
2022/10/31 13:29:33;;;;;;;17.10;15.57;;;19.90;99.90;;;;;;4932963;29;20469;-73
2022/10/31 13:32:01;;;;;;;15.63;14.63;;;19.70;99.90;;;;;;4932882;29;20456;-73
2022/10/31 13:34:35;;;;;;;16.80;15.40;;;19.50;99.90;;;;;;4932600;29;21009;-72
2022/10/31 13:37:10;;;;;;;16.43;15.30;;;19.40;99.90;;;;;;4932930;29;20477;-72
2022/10/31 13:39:56;;;;;;;16.17;15.13;;;19.30;99.90;;;;;;4933271;29;20455;-72
2022/10/31 13:42:41;;;;;;;16.53;15.17;;;19.30;99.90;;;;;;4933154;29;20451;-73
2022/10/31 13:45:14;;;;;;;17.33;15.77;;;19.40;99.90;;;;;;4932935;29;20570;-73
2022/10/31 13:47:42;;;;;;;16.83;15.10;;;19.60;99.90;;;;;;4932764;29;20450;-73
2022/10/31 13:50:23;;;;;;;16.80;15.50;;;19.80;99.90;;;;;;4932732;29;20454;-72
2022/10/31 13:52:50;;;;;;;17.37;16.00;;;20.10;99.90;;;;;;4932782;29;20445;-74
2022/10/31 13:55:36;;;;;;;19.07;17.47;;;20.10;99.90;;;;;;4932981;29;20445;-73
2022/10/31 13:58:05;;;;;;;16.73;15.43;;;20.30;99.90;;;;;;4932803;29;20480;-73
2022/10/31 14:00:34;;;;;;;19.20;17.33;;;20.50;99.90;;;;;;4932906;29;20457;-75
2022/10/31 14:03:02;;;;;;;18.67;17.03;;;20.40;99.90;;;;;;4932467;29;20793;-72
2022/10/31 14:05:32;;;;;;;18.90;17.60;;;20.40;99.90;;;;;;4932557;29;20516;-73
2022/10/31 14:08:01;;;;;;;17.90;16.80;;;20.50;99.90;;;;;;4932333;29;20991;-72
2022/10/31 14:10:30;;;;;;;17.70;16.23;;;20.60;99.90;;;;;;4932322;29;20852;-72
2022/10/31 14:13:06;;;;;;;17.27;16.27;;;20.60;99.90;;;;;;4932166;29;21235;-72
2022/10/31 14:15:33;;;;;;;17.37;16.27;;;20.30;99.90;;;;;;4932367;29;20441;-73
2022/10/31 14:18:02;;;;;;;18.47;17.00;;;20.30;99.90;;;;;;4931666;29;20456;-73
2022/10/31 14:20:41;;;;;;;16.97;15.87;;;20.40;99.90;;;;;;4932536;29;20454;-73
2022/10/31 14:23:35;;;;;;;18.23;16.73;;;20.50;99.90;;;;;;4930899;29;20458;-72
2022/10/31 14:26:30;;;;;;;17.17;15.70;;;20.50;99.90;;;;;;4932463;29;20488;-73
2022/10/31 14:28:58;;;;;;;17.33;15.83;;;20.40;99.90;;;;;;4932362;29;20828;-73
2022/10/31 14:31:34;;;;;;;16.60;15.43;;;20.30;99.90;;;;;;4932410;29;20461;-73
2022/10/31 14:34:02;;;;;;;16.40;15.20;;;20.20;99.90;;;;;;4932265;29;20758;-74
2022/10/31 14:36:42;;;;;;;16.63;15.00;;;20.00;99.90;;;;;;4932066;29;20458;-73
2022/10/31 14:39:14;;;;;;;17.63;16.30;;;20.00;99.90;;;;;;4932466;29;20551;-73
2022/10/31 14:42:05;;;;;;;20.50;18.67;;;20.10;99.90;;;;;;4932104;29;20931;-73
2022/10/31 14:45:05;;;;;;;17.40;16.27;;;20.10;99.90;;;;;;4932219;29;20485;-74
2022/10/31 14:47:40;;;;;;;20.33;18.93;;;20.10;99.90;;;;;;4932073;29;20453;-74
2022/10/31 14:50:25;;;;;;;20.50;18.50;;;20.00;99.90;;;;;;4932161;29;20970;-74
2022/10/31 14:52:56;;;;;;;19.97;18.37;;;19.90;99.90;;;;;;4931238;29;20462;-74
2022/10/31 14:55:25;;;;;;;21.07;18.90;;;19.70;99.90;;;;;;4931068;29;20445;-73
2022/10/31 14:57:56;;;;;;;21.20;19.70;;;19.40;99.90;;;;;;4931214;29;20465;-74
2022/10/31 15:00:25;;;;;;;23.70;19.80;;;19.30;99.90;;;;;;4931977;29;20446;-74
2022/10/31 15:03:03;;;;;;;21.90;20.00;;;19.10;99.90;;;;;;4932058;29;21006;-74
2022/10/31 15:05:32;;;;;;;22.30;20.17;;;19.00;99.90;;;;;;4932110;29;20512;-73
2022/10/31 15:08:00;;;;;;;22.70;20.03;;;18.90;99.90;;;;;;4931975;29;20458;-74
2022/10/31 15:10:29;;;;;;;20.67;18.93;;;19.00;99.90;;;;;;4931873;29;20462;-73
2022/10/31 15:12:56;;;;;;;20.60;19.10;;;18.90;99.90;;;;;;4932145;29;20454;-73
2022/10/31 15:15:25;;;;;;;25.63;19.73;;;18.90;99.90;;;;;;4931991;29;20928;-73
2022/10/31 15:17:55;;;;;;;21.50;19.30;;;19.00;99.90;;;;;;4931939;29;20449;-74
2022/10/31 15:20:26;;;;;;;20.60;18.47;;;19.10;99.90;;;;;;4930357;29;20540;-74
2022/10/31 15:22:54;;;;;;;20.90;19.20;;;19.10;99.90;;;;;;4931813;29;20464;-73
2022/10/31 15:25:25;;;;;;;20.07;18.37;;;19.00;99.90;;;;;;4931402;29;21007;-73
2022/10/31 15:27:53;;;;;;;20.60;18.77;;;19.00;99.90;;;;;;4932010;29;20457;-74
2022/10/31 15:30:22;;;;;;;21.23;19.50;;;18.80;99.90;;;;;;4934624;29;20819;-73
2022/10/31 15:32:49;;;;;;;21.03;19.53;;;18.70;99.90;;;;;;4935442;29;20479;-73
2022/10/31 15:35:23;;;;;;;22.67;21.07;;;18.60;99.90;;;;;;4935644;29;20521;-73
2022/10/31 15:37:50;;;;;;;21.53;20.13;;;18.40;99.90;;;;;;4935746;29;20449;-73
2022/10/31 15:40:20;;;;;;;22.50;20.80;;;18.30;99.90;;;;;;4934966;29;20956;-74
2022/10/31 15:42:52;;;;;;;23.23;21.37;;;17.90;99.90;;;;;;4935173;29;20465;-73
2022/10/31 15:45:23;;;;;;;25.17;23.00;;;17.70;99.90;;;;;;4934942;29;20544;-73
2022/10/31 15:47:55;;;;;;;25.50;22.93;;;17.60;99.90;;;;;;4934822;29;20453;-73